createdAt,value
2023-04-18T00:02:29.003Z,4.53
2023-04-18T00:07:25.772Z,5.05
2023-04-18T00:12:22.288Z,5.60
2023-04-18T00:17:18.874Z,5.10
2023-04-18T00:22:16.881Z,3.83
2023-04-18T00:27:13.209Z,4.20
2023-04-18T00:32:09.614Z,4.75
2023-04-18T00:37:06.729Z,5.07
2023-04-18T00:42:04.067Z,7.88
2023-04-18T00:47:00.641Z,5.40
2023-04-18T00:51:57.162Z,5.07
2023-04-18T00:56:53.653Z,4.65
2023-04-18T01:01:50.053Z,5.22
2023-04-18T01:06:46.984Z,6.45
2023-04-18T01:11:43.344Z,6.72
2023-04-18T01:16:39.951Z,6.20
2023-04-18T01:21:37.436Z,5.28
2023-04-18T01:26:34.005Z,4.05
2023-04-18T01:31:30.568Z,5.38
2023-04-18T01:36:27.749Z,6.30
2023-04-18T01:41:24.260Z,5.80
2023-04-18T01:46:20.701Z,5.20
2023-04-18T01:51:17.053Z,6.32
2023-04-18T01:56:13.538Z,5.70
2023-04-18T02:01:10.014Z,5.65
2023-04-18T02:06:06.905Z,6.20
2023-04-18T02:11:05.022Z,6.57
2023-04-18T02:16:01.395Z,5.97
2023-04-18T02:20:57.807Z,8.00
2023-04-18T02:25:54.527Z,6.75
2023-04-18T02:30:51.039Z,7.18
2023-04-18T02:35:47.573Z,8.45
2023-04-18T02:40:44.048Z,9.30
2023-04-18T02:45:40.492Z,7.68
2023-04-18T02:50:36.970Z,8.20
2023-04-18T02:55:33.662Z,7.30
2023-04-18T03:00:30.241Z,11.02
2023-04-18T03:05:26.635Z,11.73
2023-04-18T03:10:23.072Z,12.82
2023-04-18T03:15:19.507Z,11.23
2023-04-18T03:20:16.103Z,10.77
2023-04-18T03:25:12.528Z,11.18
2023-04-18T03:30:09.996Z,9.27
2023-04-18T03:35:06.568Z,8.40
2023-04-18T03:40:05.231Z,11.18
2023-04-18T03:45:01.968Z,9.85
2023-04-18T03:49:58.484Z,11.60
2023-04-18T03:54:55.048Z,10.38
2023-04-18T03:59:51.604Z,11.00
2023-04-18T04:04:48.476Z,15.40
2023-04-18T04:09:44.841Z,14.52
2023-04-18T04:14:41.235Z,12.13
2023-04-18T04:19:37.570Z,14.02
2023-04-18T04:24:33.956Z,16.77
2023-04-18T04:29:30.483Z,13.90
2023-04-18T04:34:26.844Z,14.15
2023-04-18T04:39:23.201Z,15.70
2023-04-18T04:44:21.925Z,15.98
2023-04-18T04:54:14.955Z,15.70
2023-04-18T04:59:11.424Z,15.30
2023-04-18T05:04:07.875Z,14.10
2023-04-18T05:09:04.258Z,14.68
2023-04-18T05:14:00.627Z,13.23
2023-04-18T05:18:57.002Z,15.65
2023-04-18T05:23:53.383Z,15.25
2023-04-18T05:28:49.732Z,12.00
2023-04-18T05:33:46.192Z,13.75
2023-04-18T05:38:42.520Z,15.85
2023-04-18T05:43:39.112Z,13.45
2023-04-18T05:48:35.519Z,17.67
2023-04-18T05:53:31.855Z,17.00
2023-04-18T05:58:29.148Z,21.27
2023-04-18T06:03:25.814Z,19.98
2023-04-18T06:08:22.388Z,20.13
2023-04-18T06:13:18.737Z,23.92
2023-04-18T06:18:15.292Z,22.17
2023-04-18T06:23:11.686Z,18.00
2023-04-18T06:28:08.221Z,19.23
2023-04-18T06:33:04.694Z,20.17
2023-04-18T06:38:01.200Z,21.42
2023-04-18T06:42:57.581Z,15.90
2023-04-18T06:47:54.073Z,17.40
2023-04-18T06:52:50.544Z,19.90
2023-04-18T06:57:47.083Z,18.15
2023-04-18T07:02:43.670Z,20.17
2023-04-18T07:07:40.293Z,19.92
2023-04-18T07:12:36.829Z,20.83
2023-04-18T07:17:33.217Z,19.88
2023-04-18T07:22:29.605Z,20.02
2023-04-18T07:27:26.705Z,18.20
2023-04-18T07:32:23.084Z,19.45
2023-04-18T07:37:21.238Z,23.25
2023-04-18T07:42:17.804Z,22.13
2023-04-18T07:47:14.140Z,20.67
2023-04-18T07:52:10.696Z,15.63
2023-04-18T07:57:07.070Z,18.98
2023-04-18T08:02:03.479Z,22.60
2023-04-18T08:06:59.875Z,20.88
2023-04-18T08:11:56.867Z,23.45
2023-04-18T08:16:53.310Z,19.88
2023-04-18T08:21:51.133Z,23.13
2023-04-18T08:26:47.543Z,22.57
2023-04-18T08:31:43.920Z,18.40
2023-04-18T08:36:40.457Z,18.63
2023-04-18T08:41:40.192Z,19.40
2023-04-18T08:46:37.169Z,17.30
2023-04-18T08:51:33.943Z,16.95
2023-04-18T08:56:31.151Z,16.85
2023-04-18T09:01:49.553Z,14.77
2023-04-18T09:11:49.523Z,17.92
2023-04-18T09:16:50.520Z,18.98
2023-04-18T09:21:58.075Z,18.23
2023-04-18T09:26:56.918Z,17.90
2023-04-18T09:31:59.749Z,20.48
2023-04-18T09:37:07.762Z,19.00
2023-04-18T09:42:06.101Z,20.02
2023-04-18T09:47:02.899Z,17.40
2023-04-18T09:52:01.547Z,19.73
2023-04-18T09:56:58.827Z,14.45
2023-04-18T10:01:57.753Z,15.50
2023-04-18T10:06:54.451Z,16.35
2023-04-18T10:11:50.935Z,16.58
2023-04-18T10:16:49.968Z,15.32
2023-04-18T10:21:54.642Z,14.77
2023-04-18T10:26:50.995Z,13.57
2023-04-18T10:31:47.985Z,14.90
2023-04-18T10:37:03.866Z,14.30
2023-04-18T10:42:00.212Z,16.20
2023-04-18T10:46:56.613Z,13.90
2023-04-18T10:51:55.634Z,12.15
2023-04-18T10:56:57.133Z,11.32
2023-04-18T11:01:57.077Z,11.57
2023-04-18T11:07:00.176Z,15.55
2023-04-18T11:12:14.753Z,11.98
2023-04-18T11:17:23.607Z,12.77
2023-04-18T11:22:20.176Z,13.30
2023-04-18T11:27:16.623Z,14.32
2023-04-18T11:32:13.069Z,12.93
2023-04-18T11:37:09.481Z,13.73
2023-04-18T11:42:05.901Z,12.05
2023-04-18T11:47:02.316Z,12.63
2023-04-18T11:51:59.879Z,12.45
2023-04-18T11:56:57.493Z,11.77
2023-04-18T12:02:14.799Z,13.10
2023-04-18T12:07:12.873Z,14.20
2023-04-18T12:12:09.295Z,11.38
2023-04-18T12:17:05.750Z,12.60
2023-04-18T12:22:05.069Z,11.48
2023-04-18T12:27:01.856Z,12.13
2023-04-18T12:31:58.301Z,10.75
2023-04-18T12:36:54.780Z,10.35
2023-04-18T12:41:51.387Z,10.52
2023-04-18T12:46:48.481Z,13.63
2023-04-18T12:51:45.180Z,14.00
2023-04-18T12:56:41.576Z,10.93
2023-04-18T13:01:38.184Z,10.98
2023-04-18T13:06:34.567Z,9.75
2023-04-18T13:11:30.911Z,9.30
2023-04-18T13:16:27.716Z,10.20
2023-04-18T13:21:25.840Z,11.93
2023-04-18T13:26:22.203Z,9.48
2023-04-18T13:31:18.685Z,7.43
2023-04-18T13:36:15.430Z,8.20
2023-04-18T13:41:13.554Z,8.32
2023-04-18T13:46:10.886Z,9.18
2023-04-18T13:51:07.412Z,8.57
2023-04-18T13:56:03.953Z,8.00
2023-04-18T14:01:00.819Z,8.25
2023-04-18T14:05:58.791Z,9.55
2023-04-18T14:10:55.334Z,9.07
2023-04-18T14:15:52.594Z,6.45
2023-04-18T14:20:49.148Z,9.57
2023-04-18T14:25:45.555Z,9.07
2023-04-18T14:30:41.867Z,8.98
2023-04-18T14:35:38.633Z,9.13
2023-04-18T14:40:34.951Z,7.22
2023-04-18T14:45:33.664Z,7.43
2023-04-18T14:50:31.206Z,8.57
2023-04-18T14:55:27.590Z,7.53
2023-04-18T15:00:24.011Z,4.90
2023-04-18T15:05:23.753Z,7.88
2023-04-18T15:10:22.336Z,7.03
2023-04-18T15:15:19.398Z,6.97
2023-04-18T15:20:16.144Z,8.32
2023-04-18T15:25:16.293Z,7.28
2023-04-18T15:30:13.870Z,8.45
2023-04-18T15:35:10.838Z,9.97
2023-04-18T15:40:10.294Z,6.55
2023-04-18T15:45:07.839Z,5.75
2023-04-18T15:50:04.873Z,6.10
2023-04-18T15:55:01.360Z,6.88
2023-04-18T15:59:59.314Z,7.18
2023-04-18T16:04:55.655Z,5.20
2023-04-18T16:09:52.047Z,8.30
2023-04-18T16:14:48.620Z,7.00
2023-04-18T16:19:44.967Z,9.25
2023-04-18T16:24:42.342Z,4.38
2023-04-18T16:29:38.758Z,6.00
2023-04-18T16:34:35.081Z,5.18
2023-04-18T16:39:31.470Z,5.15
2023-04-18T16:44:27.844Z,6.35
2023-04-18T16:49:24.312Z,6.13
2023-04-18T16:54:20.760Z,4.63
2023-04-18T16:59:17.656Z,7.13
2023-04-18T17:04:15.520Z,7.10
2023-04-18T17:19:06.576Z,5.75
2023-04-18T17:24:04.196Z,4.97
2023-04-18T17:29:02.428Z,7.28
2023-04-18T17:33:59.543Z,6.88
2023-04-18T17:38:56.300Z,9.00
2023-04-18T17:43:52.948Z,6.55
2023-04-18T17:48:49.333Z,6.10
2023-04-18T17:53:46.860Z,8.20
2023-04-18T17:58:43.264Z,8.27
2023-04-18T18:03:39.783Z,7.57
2023-04-18T18:08:36.642Z,8.32
2023-04-18T18:13:33.244Z,10.27
2023-04-18T18:18:29.731Z,11.80
2023-04-18T18:23:26.107Z,10.55
2023-04-18T18:28:22.447Z,9.25
2023-04-18T18:33:18.961Z,10.95
2023-04-18T18:38:15.398Z,11.10
2023-04-18T18:43:12.602Z,9.45
2023-04-18T18:48:09.956Z,12.68
2023-04-18T18:53:06.740Z,10.07
2023-04-18T18:58:03.129Z,12.60
2023-04-18T19:02:59.557Z,10.65
2023-04-18T19:07:57.112Z,10.15
2023-04-18T19:12:53.533Z,11.18
2023-04-18T19:17:49.913Z,15.32
2023-04-18T19:22:46.256Z,10.07
2023-04-18T19:27:42.742Z,14.57
2023-04-18T19:32:39.206Z,10.50
2023-04-18T19:37:35.925Z,13.38
2023-04-18T19:42:32.306Z,10.93
2023-04-18T19:47:32.134Z,12.02
2023-04-18T19:52:28.635Z,10.45
2023-04-18T19:57:26.213Z,11.80
2023-04-18T20:02:22.645Z,13.67
2023-04-18T20:07:19.327Z,11.57
2023-04-18T20:12:16.092Z,11.35
2023-04-18T20:17:12.408Z,14.80
2023-04-18T20:22:08.796Z,14.23
2023-04-18T20:27:05.145Z,17.02
2023-04-18T20:32:01.482Z,12.40
2023-04-18T20:36:58.680Z,11.70
2023-04-18T20:41:57.690Z,13.35
2023-04-18T20:46:54.304Z,14.05
2023-04-18T20:51:50.670Z,11.35
2023-04-18T20:56:46.995Z,11.35
2023-04-18T21:01:43.443Z,13.13
2023-04-18T21:06:39.836Z,15.07
2023-04-18T21:11:36.246Z,11.30
2023-04-18T21:16:32.737Z,11.75
2023-04-18T21:21:30.234Z,13.93
2023-04-18T21:26:26.795Z,10.32
2023-04-18T21:31:26.083Z,14.20
2023-04-18T21:36:24.052Z,11.15
2023-04-18T21:41:21.002Z,17.80
2023-04-18T21:46:18.126Z,15.38
2023-04-18T21:51:16.059Z,11.48
2023-04-18T21:56:12.507Z,15.23
2023-04-18T22:01:09.498Z,14.80
2023-04-18T22:06:06.107Z,12.10
2023-04-18T22:11:02.516Z,12.15
2023-04-18T22:16:02.119Z,17.80
2023-04-18T22:20:58.511Z,15.45
2023-04-18T22:25:55.310Z,16.35
2023-04-18T22:30:51.773Z,9.65
2023-04-18T22:35:48.537Z,9.75
2023-04-18T22:40:44.863Z,11.60
2023-04-18T22:45:41.348Z,8.82
2023-04-18T22:50:42.410Z,9.43
2023-04-18T22:55:43.222Z,8.38
2023-04-18T23:00:39.633Z,7.57
2023-04-18T23:05:36.019Z,9.82
2023-04-18T23:10:32.736Z,8.32
2023-04-18T23:15:29.109Z,7.32
2023-04-18T23:20:25.513Z,6.00
2023-04-18T23:25:21.922Z,4.60
2023-04-18T23:30:18.395Z,4.93
2023-04-18T23:35:14.738Z,6.22
2023-04-18T23:40:11.158Z,6.22
2023-04-18T23:45:07.954Z,4.57
2023-04-18T23:50:04.749Z,5.60
2023-04-18T23:55:01.670Z,4.82
2023-04-18T23:59:58.095Z,4.75
